createdAt,value
2019-05-01T00:00:59.731Z,33.10
2019-05-01T00:03:42.474Z,36.13
2019-05-01T00:06:13.578Z,32.87
2019-05-01T00:08:43.128Z,34.43
2019-05-01T00:11:12.780Z,35.27
2019-05-01T00:13:42.106Z,34.90
2019-05-01T00:16:11.401Z,34.87
2019-05-01T00:18:40.740Z,35.77
2019-05-01T00:21:10.305Z,34.67
2019-05-01T00:23:39.902Z,34.37
2019-05-01T00:26:09.364Z,34.40
2019-05-01T00:28:38.775Z,34.27
2019-05-01T00:31:08.154Z,35.40
2019-05-01T00:33:37.537Z,35.67
2019-05-01T00:36:06.909Z,35.63
2019-05-01T00:38:36.234Z,34.57
2019-05-01T00:41:05.536Z,33.47
2019-05-01T00:43:34.856Z,35.10
2019-05-01T00:46:04.448Z,34.90
2019-05-01T00:48:34.231Z,35.33
2019-05-01T00:51:03.831Z,34.07
2019-05-01T00:53:33.465Z,35.17
2019-05-01T00:56:04.520Z,33.40
2019-05-01T00:58:35.564Z,34.57
2019-05-01T01:01:23.252Z,35.27
2019-05-01T01:03:52.651Z,34.13
2019-05-01T01:06:21.953Z,35.43
2019-05-01T01:08:51.354Z,35.90
2019-05-01T01:11:20.666Z,34.57
2019-05-01T01:13:50.309Z,36.30
2019-05-01T01:16:19.624Z,35.07
2019-05-01T01:18:48.951Z,35.17
2019-05-01T01:21:18.261Z,35.77
2019-05-01T01:23:48.331Z,35.30
2019-05-01T01:26:17.967Z,33.43
2019-05-01T01:28:47.455Z,34.87
2019-05-01T01:31:16.826Z,34.03
2019-05-01T01:33:46.217Z,35.37
2019-05-01T01:36:15.560Z,34.93
2019-05-01T01:38:45.229Z,34.60
2019-05-01T01:41:15.202Z,33.83
2019-05-01T01:43:59.102Z,33.50
2019-05-01T01:46:32.486Z,35.60
2019-05-01T01:49:01.926Z,34.50
2019-05-01T01:51:32.175Z,35.13
2019-05-01T01:54:01.705Z,35.03
2019-05-01T01:56:31.968Z,35.07
2019-05-01T01:59:01.664Z,34.70
2019-05-01T02:01:48.099Z,35.20
2019-05-01T02:04:19.098Z,35.30
2019-05-01T02:06:50.641Z,37.07
2019-05-01T02:09:20.007Z,34.37
2019-05-01T02:11:49.753Z,35.73
2019-05-01T02:14:19.081Z,36.43
2019-05-01T02:16:48.716Z,37.53
2019-05-01T02:19:18.035Z,36.53
2019-05-01T02:21:47.585Z,36.87
2019-05-01T02:24:16.904Z,36.17
2019-05-01T02:26:48.543Z,36.37
2019-05-01T02:29:20.220Z,37.07
2019-05-01T02:31:52.045Z,36.63
2019-05-01T02:34:24.074Z,35.20
2019-05-01T02:36:56.457Z,36.93
2019-05-01T02:39:27.501Z,37.00
2019-05-01T02:41:59.874Z,36.67
2019-05-01T02:44:32.219Z,37.40
2019-05-01T02:47:04.700Z,37.70
2019-05-01T02:49:51.809Z,36.47
2019-05-01T02:52:23.879Z,36.63
2019-05-01T02:54:56.188Z,36.37
2019-05-01T02:57:26.216Z,35.93
2019-05-01T02:59:58.375Z,35.67
2019-05-01T03:02:29.215Z,37.60
2019-05-01T03:05:00.491Z,36.50
2019-05-01T03:07:33.252Z,37.60
2019-05-01T03:10:08.886Z,35.40
2019-05-01T03:12:39.254Z,35.83
2019-05-01T03:15:09.901Z,36.13
2019-05-01T03:17:47.632Z,35.07
2019-05-01T03:20:31.599Z,36.10
2019-05-01T03:23:21.636Z,37.07
2019-05-01T03:25:52.162Z,36.90
2019-05-01T03:28:22.935Z,36.97
2019-05-01T03:30:52.601Z,36.53
2019-05-01T03:33:22.755Z,37.00
2019-05-01T03:35:52.100Z,38.13
2019-05-01T03:38:21.975Z,37.60
2019-05-01T03:40:52.937Z,38.20
2019-05-01T03:43:23.011Z,37.13
2019-05-01T03:45:53.043Z,36.33
2019-05-01T03:48:22.739Z,37.60
2019-05-01T03:50:52.682Z,38.20
2019-05-01T03:53:22.438Z,38.80
2019-05-01T03:55:51.898Z,38.60
2019-05-01T03:58:22.068Z,38.87
2019-05-01T04:01:08.386Z,40.40
2019-05-01T04:03:40.139Z,39.20
2019-05-01T04:06:09.821Z,38.70
2019-05-01T04:08:40.131Z,39.77
2019-05-01T04:11:10.472Z,37.03
2019-05-01T04:13:41.216Z,38.80
2019-05-01T04:16:10.888Z,39.83
2019-05-01T04:18:41.211Z,40.03
2019-05-01T04:21:11.600Z,39.30
2019-05-01T04:23:42.834Z,39.63
2019-05-01T04:26:13.301Z,39.73
2019-05-01T04:28:45.361Z,39.00
2019-05-01T04:31:32.067Z,40.67
2019-05-01T04:34:03.757Z,38.03
2019-05-01T04:36:35.505Z,38.93
2019-05-01T04:39:08.033Z,37.97
2019-05-01T04:41:37.885Z,38.97
2019-05-01T04:44:07.455Z,40.30
2019-05-01T04:46:37.273Z,41.23
2019-05-01T04:49:06.674Z,40.50
2019-05-01T04:51:36.620Z,37.77
2019-05-01T04:54:06.660Z,38.63
2019-05-01T04:56:36.413Z,38.07
2019-05-01T04:59:06.289Z,47.40
2019-05-01T05:01:50.210Z,47.30
2019-05-01T05:04:20.249Z,44.13
2019-05-01T05:06:50.418Z,40.70
2019-05-01T05:09:22.100Z,51.83
2019-05-01T05:11:53.144Z,55.83
2019-05-01T05:14:24.857Z,60.37
2019-05-01T05:16:59.599Z,57.63
2019-05-01T05:19:29.558Z,60.13
2019-05-01T05:21:59.646Z,55.93
2019-05-01T05:24:29.983Z,57.30
2019-05-01T05:27:00.750Z,57.30
2019-05-01T05:29:32.108Z,58.10
2019-05-01T05:32:03.214Z,58.50
2019-05-01T05:34:34.642Z,56.27
2019-05-01T05:37:08.269Z,56.40
2019-05-01T05:39:43.996Z,55.20
2019-05-01T05:42:14.156Z,56.77
2019-05-01T05:44:45.522Z,56.60
2019-05-01T05:47:15.362Z,57.67
2019-05-01T05:49:45.729Z,58.03
2019-05-01T05:52:36.806Z,59.30
2019-05-01T05:55:10.786Z,69.97
2019-05-01T05:57:56.914Z,60.33
2019-05-01T06:00:31.949Z,58.60
2019-05-01T06:03:05.826Z,57.97
2019-05-01T06:05:47.918Z,60.27
2019-05-01T06:08:21.870Z,58.43
2019-05-01T06:11:06.461Z,104.37
2019-05-01T06:13:42.243Z,62.77
2019-05-01T06:16:19.715Z,100.33
2019-05-01T06:18:56.766Z,79.53
2019-05-01T06:24:27.171Z,70.60
2019-05-01T06:26:57.032Z,61.27
2019-05-01T06:29:31.053Z,65.47
2019-05-01T06:31:58.807Z,65.00
2019-05-01T06:34:29.774Z,58.13
2019-05-01T06:36:59.690Z,69.70
2019-05-01T06:39:29.253Z,59.67
2019-05-01T06:41:59.394Z,57.67
2019-05-01T06:44:39.113Z,70.07
2019-05-01T06:47:10.073Z,72.20
2019-05-01T06:49:42.093Z,62.30
2019-05-01T06:52:14.015Z,61.97
2019-05-01T06:54:47.780Z,59.60
2019-05-01T06:57:16.034Z,60.77
2019-05-01T06:59:46.809Z,58.67
2019-05-01T07:02:17.928Z,58.93
2019-05-01T07:04:51.375Z,63.80
2019-05-01T07:07:25.686Z,57.97
2019-05-01T07:09:57.232Z,57.83
2019-05-01T07:12:30.056Z,62.77
2019-05-01T07:15:00.852Z,58.37
2019-05-01T07:17:31.053Z,58.13
2019-05-01T07:20:12.059Z,61.33
2019-05-01T07:22:42.522Z,57.93
2019-05-01T07:25:13.824Z,57.70
2019-05-01T07:27:43.196Z,60.53
2019-05-01T07:30:20.757Z,58.10
2019-05-01T07:32:50.681Z,59.33
2019-05-01T07:35:20.654Z,58.43
2019-05-01T07:37:50.495Z,61.43
2019-05-01T07:40:29.052Z,63.27
2019-05-01T07:42:57.736Z,62.53
2019-05-01T07:45:31.827Z,61.80
2019-05-01T07:48:05.695Z,62.63
2019-05-01T07:50:33.945Z,62.10
2019-05-01T07:53:03.792Z,63.40
2019-05-01T07:55:36.694Z,62.20
2019-05-01T07:58:10.444Z,63.53
2019-05-01T08:00:58.295Z,64.20
2019-05-01T08:03:27.877Z,62.50
2019-05-01T08:05:57.207Z,63.37
2019-05-01T08:08:26.587Z,64.77
2019-05-01T08:10:59.945Z,63.47
2019-05-01T08:13:30.596Z,62.50
2019-05-01T08:16:01.990Z,63.20
2019-05-01T08:18:42.895Z,62.33
2019-05-01T08:21:30.091Z,63.37
2019-05-01T08:23:59.738Z,61.17
2019-05-01T08:26:29.088Z,61.37
2019-05-01T08:29:06.595Z,64.37
2019-05-01T08:31:51.604Z,70.13
2019-05-01T08:34:29.849Z,69.63
2019-05-01T08:36:59.343Z,68.57
2019-05-01T08:39:28.742Z,67.10
2019-05-01T08:41:58.085Z,64.80
2019-05-01T08:44:29.540Z,65.13
2019-05-01T08:47:07.630Z,70.03
2019-05-01T08:49:50.978Z,69.07
2019-05-01T08:52:20.316Z,70.37
2019-05-01T08:54:49.953Z,74.77
2019-05-01T08:57:19.404Z,75.50
2019-05-01T08:59:48.752Z,70.83
2019-05-01T09:02:18.223Z,67.77
2019-05-01T09:04:47.547Z,67.57
2019-05-01T09:07:19.063Z,71.20
2019-05-01T09:09:48.195Z,71.90
2019-05-01T09:12:17.521Z,71.43
2019-05-01T09:14:46.892Z,74.53
2019-05-01T09:17:16.307Z,70.33
2019-05-01T09:19:45.643Z,88.60
2019-05-01T09:22:15.990Z,75.70
2019-05-01T09:24:46.562Z,72.53
2019-05-01T09:27:28.705Z,86.60
2019-05-01T09:29:56.449Z,70.07
2019-05-01T09:32:25.766Z,73.77
2019-05-01T09:34:58.081Z,77.70
2019-05-01T09:37:26.554Z,69.87
2019-05-01T09:39:56.203Z,70.77
2019-05-01T09:42:26.186Z,73.90
2019-05-01T09:44:55.522Z,66.77
2019-05-01T09:47:25.867Z,69.93
2019-05-01T09:49:56.043Z,71.20
2019-05-01T09:52:46.006Z,77.13
2019-05-01T09:55:33.003Z,70.33
2019-05-01T09:58:02.919Z,68.83
2019-05-01T10:00:33.475Z,69.87
2019-05-01T10:03:02.783Z,72.17
2019-05-01T10:05:32.206Z,67.20
2019-05-01T10:08:04.170Z,68.47
2019-05-01T10:10:32.797Z,67.40
2019-05-01T10:13:02.580Z,68.10
2019-05-01T10:15:32.051Z,66.67
2019-05-01T10:18:01.402Z,67.27
2019-05-01T10:20:30.799Z,68.23
2019-05-01T10:23:00.104Z,70.17
2019-05-01T10:25:29.658Z,65.87
2019-05-01T10:28:00.707Z,64.93
2019-05-01T10:30:48.007Z,69.40
2019-05-01T10:33:18.972Z,68.17
2019-05-01T10:36:07.942Z,68.27
2019-05-01T10:38:39.850Z,68.07
2019-05-01T10:41:09.242Z,68.90
2019-05-01T10:43:39.326Z,66.50
2019-05-01T10:46:13.892Z,67.43
2019-05-01T10:48:49.519Z,68.07
2019-05-01T10:51:25.656Z,71.83
2019-05-01T10:54:02.644Z,67.60
2019-05-01T10:56:35.400Z,68.40
2019-05-01T10:59:07.463Z,67.83
2019-05-01T11:01:42.803Z,66.63
2019-05-01T11:04:13.277Z,66.87
2019-05-01T11:06:47.635Z,66.40
2019-05-01T11:09:25.388Z,66.53
2019-05-01T11:11:59.834Z,66.40
2019-05-01T11:14:31.466Z,66.97
2019-05-01T11:17:02.355Z,67.03
2019-05-01T11:19:34.464Z,68.83
2019-05-01T11:22:05.452Z,69.17
2019-05-01T11:24:40.026Z,65.07
2019-05-01T11:27:14.329Z,63.03
2019-05-01T11:29:46.461Z,62.60
2019-05-01T11:32:20.321Z,60.47
2019-05-01T11:34:54.473Z,63.30
2019-05-01T11:37:37.167Z,61.27
2019-05-01T11:40:12.361Z,59.60
2019-05-01T11:42:51.286Z,60.37
2019-05-01T11:45:23.941Z,65.53
2019-05-01T11:47:57.282Z,63.53
2019-05-01T11:50:33.397Z,60.53
2019-05-01T11:53:07.732Z,58.10
2019-05-01T11:55:40.807Z,59.80
2019-05-01T11:58:15.196Z,58.70
2019-05-01T12:00:49.797Z,57.77
2019-05-01T12:03:21.718Z,58.20
2019-05-01T12:05:53.591Z,59.77
2019-05-01T12:08:24.247Z,58.30
2019-05-01T12:10:53.786Z,56.60
2019-05-01T12:13:23.523Z,57.83
2019-05-01T12:15:58.643Z,58.17
2019-05-01T12:18:30.553Z,57.30
2019-05-01T12:21:05.946Z,56.17
2019-05-01T12:23:36.916Z,58.47
2019-05-01T12:26:08.653Z,57.80
2019-05-01T12:28:41.470Z,56.13
2019-05-01T12:31:13.554Z,55.70
2019-05-01T12:33:44.982Z,54.93
2019-05-01T12:36:35.428Z,53.83
2019-05-01T12:38:55.279Z,54.70
2019-05-01T12:41:28.862Z,54.60
2019-05-01T12:44:02.864Z,55.30
2019-05-01T12:46:51.946Z,55.57
2019-05-01T12:49:28.327Z,52.60
2019-05-01T12:52:10.360Z,49.87
2019-05-01T12:54:43.759Z,51.23
2019-05-01T12:57:20.906Z,52.50
2019-05-01T13:00:08.376Z,50.20
2019-05-01T13:02:31.611Z,51.73
2019-05-01T13:05:05.077Z,50.27
2019-05-01T13:07:35.485Z,49.20
2019-05-01T13:10:06.956Z,50.00
2019-05-01T13:12:43.016Z,47.63
2019-05-01T13:15:14.889Z,48.40
2019-05-01T13:17:58.510Z,46.30
2019-05-01T13:20:29.395Z,44.73
2019-05-01T13:23:02.895Z,51.60
2019-05-01T13:25:34.501Z,47.77
2019-05-01T13:28:26.329Z,48.33
2019-05-01T13:31:11.859Z,47.10
2019-05-01T13:33:50.718Z,44.93
2019-05-01T13:36:22.927Z,44.27
2019-05-01T13:38:54.025Z,45.70
2019-05-01T13:41:29.016Z,46.87
2019-05-01T13:44:01.324Z,46.67
2019-05-01T13:46:33.062Z,47.63
2019-05-01T13:49:04.723Z,45.57
2019-05-01T13:51:37.818Z,45.73
2019-05-01T13:54:09.126Z,46.63
2019-05-01T13:56:39.764Z,47.00
2019-05-01T13:59:15.601Z,47.83
2019-05-01T14:01:48.917Z,46.87
2019-05-01T14:04:22.407Z,48.17
2019-05-01T14:06:52.276Z,46.07
2019-05-01T14:09:25.815Z,46.23
2019-05-01T14:11:58.230Z,45.73
2019-05-01T14:14:32.824Z,42.87
2019-05-01T14:17:03.976Z,46.10
2019-05-01T14:19:35.773Z,44.30
2019-05-01T14:22:18.864Z,45.10
2019-05-01T14:24:59.597Z,44.57
2019-05-01T14:27:29.411Z,45.47
2019-05-01T14:29:59.180Z,44.17
2019-05-01T14:32:29.261Z,43.73
2019-05-01T14:35:00.387Z,43.53
2019-05-01T14:37:30.496Z,45.30
2019-05-01T14:40:04.526Z,44.13
2019-05-01T14:42:35.055Z,45.13
2019-05-01T14:45:15.154Z,47.70
2019-05-01T14:47:48.011Z,49.90
2019-05-01T14:50:18.140Z,43.67
2019-05-01T14:52:48.214Z,43.47
2019-05-01T14:55:19.345Z,43.03
2019-05-01T14:57:50.557Z,50.23
2019-05-01T15:00:21.716Z,47.37
2019-05-01T15:02:53.520Z,47.00
2019-05-01T15:05:25.836Z,49.53
2019-05-01T15:08:02.674Z,46.80
2019-05-01T15:10:34.018Z,52.03
2019-05-01T15:13:05.394Z,44.00
2019-05-01T15:15:38.129Z,43.40
2019-05-01T15:18:11.747Z,44.87
2019-05-01T15:20:46.466Z,44.47
2019-05-01T15:23:18.250Z,41.53
2019-05-01T15:25:50.695Z,57.83
2019-05-01T15:28:21.360Z,42.57
2019-05-01T15:30:54.195Z,41.77
2019-05-01T15:33:27.641Z,40.90
2019-05-01T15:36:03.388Z,48.77
2019-05-01T15:38:39.924Z,43.77
2019-05-01T15:41:28.276Z,38.43
2019-05-01T15:44:05.179Z,42.30
2019-05-01T15:46:36.157Z,43.83
2019-05-01T15:49:05.521Z,42.43
2019-05-01T15:51:34.852Z,41.90
2019-05-01T15:54:04.603Z,40.00
2019-05-01T15:56:33.914Z,39.70
2019-05-01T15:59:03.296Z,44.30
2019-05-01T16:01:32.771Z,41.23
2019-05-01T16:04:02.153Z,42.90
2019-05-01T16:06:31.460Z,42.57
2019-05-01T16:09:00.789Z,41.87
2019-05-01T16:11:31.769Z,42.13
2019-05-01T16:14:02.047Z,39.43
2019-05-01T16:16:31.353Z,40.93
2019-05-01T16:19:00.698Z,41.47
2019-05-01T16:21:29.985Z,40.70
2019-05-01T16:23:59.337Z,42.43
2019-05-01T16:26:28.675Z,46.97
2019-05-01T16:28:58.865Z,42.83
2019-05-01T16:31:28.181Z,45.87
2019-05-01T16:33:57.498Z,44.07
2019-05-01T16:36:26.829Z,53.80
2019-05-01T16:39:13.105Z,44.50
2019-05-01T16:41:44.142Z,58.20
2019-05-01T16:44:13.437Z,58.13
2019-05-01T16:46:42.791Z,51.07
2019-05-01T16:49:12.112Z,45.77
2019-05-01T16:51:41.493Z,46.83
2019-05-01T16:54:11.091Z,54.43
2019-05-01T16:56:40.384Z,45.10
2019-05-01T16:59:09.994Z,48.07
2019-05-01T17:01:40.935Z,54.73
2019-05-01T17:04:11.976Z,41.37
2019-05-01T17:06:57.624Z,39.67
2019-05-01T17:09:37.378Z,40.50
2019-05-01T17:12:10.952Z,40.97
2019-05-01T17:14:40.273Z,41.97
2019-05-01T17:17:11.638Z,54.27
2019-05-01T17:19:40.963Z,44.33
2019-05-01T17:22:14.249Z,41.00
2019-05-01T17:24:41.736Z,48.10
2019-05-01T17:27:11.062Z,40.17
2019-05-01T17:29:40.454Z,46.07
2019-05-01T17:32:11.392Z,48.13
2019-05-01T17:34:40.881Z,41.13
2019-05-01T17:37:10.255Z,56.67
2019-05-01T17:39:39.650Z,42.87
2019-05-01T17:42:09.109Z,39.87
2019-05-01T17:44:39.607Z,46.33
2019-05-01T17:47:09.388Z,40.77
2019-05-01T17:49:41.036Z,40.67
2019-05-01T17:52:09.750Z,40.90
2019-05-01T17:54:39.204Z,37.03
2019-05-01T17:57:08.504Z,38.67
2019-05-01T17:59:37.924Z,38.67
2019-05-01T18:02:10.080Z,38.23
2019-05-01T18:04:50.974Z,39.00
2019-05-01T18:07:20.288Z,38.37
2019-05-01T18:09:51.507Z,36.47
2019-05-01T18:12:23.273Z,37.63
2019-05-01T18:14:52.552Z,36.87
2019-05-01T18:17:22.211Z,36.00
2019-05-01T18:19:51.536Z,38.17
2019-05-01T18:22:22.503Z,37.13
2019-05-01T18:24:59.710Z,38.77
2019-05-01T18:27:43.024Z,36.60
2019-05-01T18:30:15.818Z,36.60
2019-05-01T18:32:47.410Z,38.60
2019-05-01T18:35:17.115Z,38.60
2019-05-01T18:37:50.790Z,37.00
2019-05-01T18:40:24.604Z,39.23
2019-05-01T18:42:53.938Z,38.30
2019-05-01T18:45:51.659Z,38.50
2019-05-01T18:48:30.707Z,36.80
2019-05-01T18:51:01.991Z,39.83
2019-05-01T18:53:32.140Z,38.47
2019-05-01T18:56:05.584Z,36.97
2019-05-01T18:58:36.900Z,39.20
2019-05-01T19:01:09.162Z,36.50
2019-05-01T19:03:42.468Z,38.77
2019-05-01T19:06:12.401Z,38.00
2019-05-01T19:08:43.959Z,38.63
2019-05-01T19:11:16.585Z,38.27
2019-05-01T19:13:47.159Z,37.70
2019-05-01T19:16:17.701Z,40.03
2019-05-01T19:18:47.458Z,38.37
2019-05-01T19:21:19.022Z,39.73
2019-05-01T19:23:50.777Z,39.27
2019-05-01T19:26:20.361Z,40.10
2019-05-01T19:28:49.857Z,40.10
2019-05-01T19:31:21.324Z,41.53
2019-05-01T19:33:50.614Z,39.90
2019-05-01T19:36:20.005Z,40.03
2019-05-01T19:38:49.531Z,38.93
2019-05-01T19:41:19.356Z,39.37
2019-05-01T19:43:48.626Z,38.90
2019-05-01T19:46:18.019Z,37.83
2019-05-01T19:48:50.691Z,40.43
2019-05-01T19:51:19.268Z,40.30
2019-05-01T19:53:51.687Z,41.50
2019-05-01T19:56:21.417Z,40.70
2019-05-01T19:58:52.540Z,39.90
2019-05-01T20:01:22.118Z,38.87
2019-05-01T20:03:51.821Z,40.43
2019-05-01T20:06:21.272Z,39.07
2019-05-01T20:08:51.221Z,39.53
2019-05-01T20:11:20.695Z,39.57
2019-05-01T20:13:50.261Z,40.47
2019-05-01T20:16:20.725Z,38.80
2019-05-01T20:18:50.563Z,40.73
2019-05-01T20:21:20.106Z,40.57
2019-05-01T20:23:49.439Z,41.17
2019-05-01T20:26:18.843Z,40.20
2019-05-01T20:28:48.153Z,41.00
2019-05-01T20:31:18.491Z,41.63
2019-05-01T20:33:48.859Z,42.20
2019-05-01T20:36:18.164Z,41.93
2019-05-01T20:38:47.496Z,50.87
2019-05-01T20:41:18.117Z,43.83
2019-05-01T20:43:47.623Z,42.50
2019-05-01T20:46:21.500Z,41.00
2019-05-01T20:48:48.226Z,42.13
2019-05-01T20:51:20.205Z,41.57
2019-05-01T20:53:48.867Z,41.30
2019-05-01T20:56:28.608Z,41.07
2019-05-01T20:59:03.338Z,41.70
2019-05-01T21:01:31.557Z,43.83
2019-05-01T21:04:20.927Z,44.20
2019-05-01T21:07:08.046Z,44.97
2019-05-01T21:09:47.163Z,44.77
2019-05-01T21:12:10.092Z,42.07
2019-05-01T21:14:39.754Z,43.97
2019-05-01T21:17:13.405Z,45.07
2019-05-01T21:19:40.117Z,44.87
2019-05-01T21:22:09.442Z,44.63
2019-05-01T21:24:38.787Z,46.70
2019-05-01T21:27:08.079Z,45.97
2019-05-01T21:29:37.751Z,45.53
2019-05-01T21:32:07.101Z,45.30
2019-05-01T21:34:36.584Z,44.73
2019-05-01T21:37:05.938Z,43.73
2019-05-01T21:39:35.307Z,44.90
2019-05-01T21:42:11.695Z,43.90
2019-05-01T21:44:36.341Z,46.33
2019-05-01T21:47:05.674Z,43.97
2019-05-01T21:49:34.971Z,45.87
2019-05-01T21:52:07.329Z,46.33
2019-05-01T21:54:35.864Z,46.87
2019-05-01T21:57:05.259Z,43.70
2019-05-01T21:59:35.305Z,46.13
2019-05-01T22:02:09.985Z,43.03
2019-05-01T22:04:36.549Z,45.07
2019-05-01T22:07:06.797Z,44.20
2019-05-01T22:09:36.662Z,43.97
2019-05-01T22:12:08.283Z,43.17
2019-05-01T22:14:55.857Z,46.67
2019-05-01T22:17:43.532Z,44.67
2019-05-01T22:20:14.851Z,45.23
2019-05-01T22:22:46.026Z,45.67
2019-05-01T22:25:23.081Z,46.20
2019-05-01T22:27:54.157Z,44.33
2019-05-01T22:30:25.554Z,46.37
2019-05-01T22:32:58.042Z,46.63
2019-05-01T22:35:32.188Z,46.00
2019-05-01T22:38:01.530Z,42.83
2019-05-01T22:40:32.576Z,44.87
2019-05-01T22:43:01.970Z,45.37
2019-05-01T22:45:31.271Z,44.93
2019-05-01T22:48:00.687Z,45.63
2019-05-01T22:50:29.988Z,44.70
2019-05-01T22:52:59.338Z,46.07
2019-05-01T22:55:28.634Z,43.97
2019-05-01T22:57:57.955Z,44.63
2019-05-01T23:00:33.498Z,45.90
2019-05-01T23:03:09.065Z,45.30
2019-05-01T23:05:38.384Z,44.30
2019-05-01T23:08:08.020Z,42.83
2019-05-01T23:10:41.979Z,44.97
2019-05-01T23:13:08.799Z,48.13
2019-05-01T23:15:38.198Z,49.37
2019-05-01T23:18:10.654Z,48.00
2019-05-01T23:20:39.126Z,50.30
2019-05-01T23:23:09.742Z,48.33
2019-05-01T23:25:41.142Z,50.57
2019-05-01T23:28:10.324Z,48.53
2019-05-01T23:30:39.639Z,49.37
2019-05-01T23:33:09.053Z,48.70
2019-05-01T23:35:38.825Z,48.00
2019-05-01T23:38:08.139Z,51.67
2019-05-01T23:40:37.820Z,49.23
2019-05-01T23:43:07.507Z,48.60
2019-05-01T23:45:36.906Z,50.57
2019-05-01T23:48:06.215Z,49.57
2019-05-01T23:50:35.646Z,49.20
2019-05-01T23:53:09.172Z,49.40
2019-05-01T23:55:36.304Z,51.43
2019-05-01T23:58:05.872Z,49.70
